sensor_id;sensor_type;location;lat;lon;timestamp;P1;durP1;ratioP1;P2;durP2;ratioP2
51927;SDS011;37953;52.806;18.270;2023-04-19T00:00:52;14.20;;;3.45;;
51927;SDS011;37953;52.806;18.270;2023-04-19T00:03:18;15.35;;;3.42;;
51927;SDS011;37953;52.806;18.270;2023-04-19T00:05:44;8.15;;;3.10;;
51927;SDS011;37953;52.806;18.270;2023-04-19T00:08:10;6.25;;;3.28;;
51927;SDS011;37953;52.806;18.270;2023-04-19T00:10:36;7.13;;;3.22;;
51927;SDS011;37953;52.806;18.270;2023-04-19T00:13:04;8.68;;;3.55;;
51927;SDS011;37953;52.806;18.270;2023-04-19T00:15:31;6.78;;;2.70;;
51927;SDS011;37953;52.806;18.270;2023-04-19T00:17:57;8.32;;;3.25;;
51927;SDS011;37953;52.806;18.270;2023-04-19T00:20:23;6.82;;;2.85;;
51927;SDS011;37953;52.806;18.270;2023-04-19T00:22:49;8.95;;;3.20;;
51927;SDS011;37953;52.806;18.270;2023-04-19T00:25:15;7.28;;;3.28;;
51927;SDS011;37953;52.806;18.270;2023-04-19T00:27:41;9.68;;;3.25;;
51927;SDS011;37953;52.806;18.270;2023-04-19T00:30:07;11.77;;;3.05;;
51927;SDS011;37953;52.806;18.270;2023-04-19T00:32:33;6.32;;;2.80;;
51927;SDS011;37953;52.806;18.270;2023-04-19T00:34:59;9.18;;;3.10;;
51927;SDS011;37953;52.806;18.270;2023-04-19T00:37:25;7.20;;;2.75;;
51927;SDS011;37953;52.806;18.270;2023-04-19T00:39:51;8.75;;;3.05;;
51927;SDS011;37953;52.806;18.270;2023-04-19T00:42:17;7.45;;;2.97;;
51927;SDS011;37953;52.806;18.270;2023-04-19T00:44:43;7.47;;;3.35;;
51927;SDS011;37953;52.806;18.270;2023-04-19T00:47:12;8.35;;;3.45;;
51927;SDS011;37953;52.806;18.270;2023-04-19T00:49:39;10.18;;;3.35;;
51927;SDS011;37953;52.806;18.270;2023-04-19T00:52:06;8.95;;;3.75;;
51927;SDS011;37953;52.806;18.270;2023-04-19T00:54:32;10.93;;;3.50;;
51927;SDS011;37953;52.806;18.270;2023-04-19T00:57:01;17.15;;;3.45;;
51927;SDS011;37953;52.806;18.270;2023-04-19T00:59:28;7.57;;;3.10;;
51927;SDS011;37953;52.806;18.270;2023-04-19T01:02:00;7.68;;;3.00;;
51927;SDS011;37953;52.806;18.270;2023-04-19T01:04:32;6.03;;;2.85;;
51927;SDS011;37953;52.806;18.270;2023-04-19T01:06:58;6.47;;;3.05;;
51927;SDS011;37953;52.806;18.270;2023-04-19T01:09:24;7.97;;;3.22;;
51927;SDS011;37953;52.806;18.270;2023-04-19T01:11:50;8.73;;;3.42;;
51927;SDS011;37953;52.806;18.270;2023-04-19T01:14:15;7.90;;;3.60;;
51927;SDS011;37953;52.806;18.270;2023-04-19T01:16:42;10.30;;;3.70;;
51927;SDS011;37953;52.806;18.270;2023-04-19T01:19:10;10.10;;;3.55;;
51927;SDS011;37953;52.806;18.270;2023-04-19T01:21:36;9.20;;;3.90;;
51927;SDS011;37953;52.806;18.270;2023-04-19T01:24:09;6.68;;;3.67;;
51927;SDS011;37953;52.806;18.270;2023-04-19T01:26:41;12.55;;;4.35;;
51927;SDS011;37953;52.806;18.270;2023-04-19T01:29:07;9.48;;;4.10;;
51927;SDS011;37953;52.806;18.270;2023-04-19T01:31:33;8.70;;;3.70;;
51927;SDS011;37953;52.806;18.270;2023-04-19T01:33:59;7.72;;;3.85;;
51927;SDS011;37953;52.806;18.270;2023-04-19T01:36:25;13.05;;;3.83;;
51927;SDS011;37953;52.806;18.270;2023-04-19T01:38:52;10.07;;;3.72;;
51927;SDS011;37953;52.806;18.270;2023-04-19T01:41:18;8.73;;;3.50;;
51927;SDS011;37953;52.806;18.270;2023-04-19T01:43:46;10.05;;;3.03;;
51927;SDS011;37953;52.806;18.270;2023-04-19T01:46:12;10.27;;;3.53;;
51927;SDS011;37953;52.806;18.270;2023-04-19T01:48:38;9.07;;;3.58;;
51927;SDS011;37953;52.806;18.270;2023-04-19T01:51:04;8.38;;;3.35;;
51927;SDS011;37953;52.806;18.270;2023-04-19T01:53:30;8.05;;;3.50;;
51927;SDS011;37953;52.806;18.270;2023-04-19T01:55:56;5.78;;;2.83;;
51927;SDS011;37953;52.806;18.270;2023-04-19T01:58:21;7.97;;;3.40;;
51927;SDS011;37953;52.806;18.270;2023-04-19T02:00:48;8.52;;;3.53;;
51927;SDS011;37953;52.806;18.270;2023-04-19T02:03:13;8.57;;;3.55;;
51927;SDS011;37953;52.806;18.270;2023-04-19T02:05:39;8.32;;;3.90;;
51927;SDS011;37953;52.806;18.270;2023-04-19T02:08:05;7.00;;;3.30;;
51927;SDS011;37953;52.806;18.270;2023-04-19T02:10:31;8.95;;;3.30;;
51927;SDS011;37953;52.806;18.270;2023-04-19T02:12:57;6.60;;;3.05;;
51927;SDS011;37953;52.806;18.270;2023-04-19T02:15:23;13.35;;;4.07;;
51927;SDS011;37953;52.806;18.270;2023-04-19T02:17:49;9.50;;;3.90;;
51927;SDS011;37953;52.806;18.270;2023-04-19T02:20:15;9.75;;;3.50;;
51927;SDS011;37953;52.806;18.270;2023-04-19T02:22:41;7.72;;;3.25;;
51927;SDS011;37953;52.806;18.270;2023-04-19T02:25:08;8.63;;;3.60;;
51927;SDS011;37953;52.806;18.270;2023-04-19T02:27:34;12.50;;;3.97;;
51927;SDS011;37953;52.806;18.270;2023-04-19T02:30:01;8.80;;;3.42;;
51927;SDS011;37953;52.806;18.270;2023-04-19T02:32:27;11.68;;;3.85;;
51927;SDS011;37953;52.806;18.270;2023-04-19T02:34:53;8.85;;;3.85;;
51927;SDS011;37953;52.806;18.270;2023-04-19T02:37:19;11.27;;;4.00;;
51927;SDS011;37953;52.806;18.270;2023-04-19T02:39:45;7.20;;;3.30;;
51927;SDS011;37953;52.806;18.270;2023-04-19T02:42:11;12.70;;;3.90;;
51927;SDS011;37953;52.806;18.270;2023-04-19T02:44:43;7.50;;;3.28;;
51927;SDS011;37953;52.806;18.270;2023-04-19T02:47:09;6.65;;;3.60;;
51927;SDS011;37953;52.806;18.270;2023-04-19T02:49:35;9.82;;;3.90;;
51927;SDS011;37953;52.806;18.270;2023-04-19T02:52:05;8.40;;;3.47;;
51927;SDS011;37953;52.806;18.270;2023-04-19T02:54:32;9.70;;;3.38;;
51927;SDS011;37953;52.806;18.270;2023-04-19T02:56:58;10.98;;;3.35;;
51927;SDS011;37953;52.806;18.270;2023-04-19T02:59:24;12.93;;;3.60;;
51927;SDS011;37953;52.806;18.270;2023-04-19T03:01:50;11.02;;;3.58;;
51927;SDS011;37953;52.806;18.270;2023-04-19T03:04:16;9.93;;;3.53;;
51927;SDS011;37953;52.806;18.270;2023-04-19T03:06:42;10.82;;;3.55;;
51927;SDS011;37953;52.806;18.270;2023-04-19T03:09:09;10.35;;;3.47;;
51927;SDS011;37953;52.806;18.270;2023-04-19T03:11:35;8.18;;;3.60;;
51927;SDS011;37953;52.806;18.270;2023-04-19T03:14:01;10.77;;;3.63;;
51927;SDS011;37953;52.806;18.270;2023-04-19T03:16:27;10.38;;;3.33;;
51927;SDS011;37953;52.806;18.270;2023-04-19T03:18:54;9.13;;;3.67;;
51927;SDS011;37953;52.806;18.270;2023-04-19T03:21:20;8.57;;;3.20;;
51927;SDS011;37953;52.806;18.270;2023-04-19T03:23:46;7.80;;;3.67;;
51927;SDS011;37953;52.806;18.270;2023-04-19T03:26:12;9.68;;;3.45;;
51927;SDS011;37953;52.806;18.270;2023-04-19T03:28:38;8.73;;;3.58;;
51927;SDS011;37953;52.806;18.270;2023-04-19T03:31:04;9.93;;;3.80;;
51927;SDS011;37953;52.806;18.270;2023-04-19T03:33:30;10.80;;;3.83;;
51927;SDS011;37953;52.806;18.270;2023-04-19T03:35:56;10.80;;;3.85;;
51927;SDS011;37953;52.806;18.270;2023-04-19T03:38:22;11.32;;;3.60;;
51927;SDS011;37953;52.806;18.270;2023-04-19T03:40:48;9.95;;;3.40;;
51927;SDS011;37953;52.806;18.270;2023-04-19T03:43:14;11.18;;;3.92;;
51927;SDS011;37953;52.806;18.270;2023-04-19T03:45:40;8.10;;;3.58;;
51927;SDS011;37953;52.806;18.270;2023-04-19T03:48:06;6.68;;;3.60;;
51927;SDS011;37953;52.806;18.270;2023-04-19T03:50:32;7.93;;;3.47;;
51927;SDS011;37953;52.806;18.270;2023-04-19T03:52:58;7.97;;;3.60;;
51927;SDS011;37953;52.806;18.270;2023-04-19T03:55:24;7.32;;;3.53;;
51927;SDS011;37953;52.806;18.270;2023-04-19T03:57:50;9.45;;;4.10;;
51927;SDS011;37953;52.806;18.270;2023-04-19T04:00:16;10.90;;;3.80;;
51927;SDS011;37953;52.806;18.270;2023-04-19T04:02:42;9.57;;;4.00;;
51927;SDS011;37953;52.806;18.270;2023-04-19T04:05:08;10.50;;;3.67;;
51927;SDS011;37953;52.806;18.270;2023-04-19T04:07:34;9.25;;;3.72;;
51927;SDS011;37953;52.806;18.270;2023-04-19T04:10:00;15.20;;;4.53;;
51927;SDS011;37953;52.806;18.270;2023-04-19T04:12:26;8.77;;;4.00;;
51927;SDS011;37953;52.806;18.270;2023-04-19T04:14:52;9.07;;;4.20;;
51927;SDS011;37953;52.806;18.270;2023-04-19T04:17:18;10.75;;;4.35;;
51927;SDS011;37953;52.806;18.270;2023-04-19T04:19:44;13.18;;;5.22;;
51927;SDS011;37953;52.806;18.270;2023-04-19T04:22:10;11.07;;;4.18;;
51927;SDS011;37953;52.806;18.270;2023-04-19T04:24:37;8.15;;;4.32;;
51927;SDS011;37953;52.806;18.270;2023-04-19T04:27:10;12.70;;;4.63;;
51927;SDS011;37953;52.806;18.270;2023-04-19T04:29:36;6.93;;;3.95;;
51927;SDS011;37953;52.806;18.270;2023-04-19T04:32:06;18.05;;;5.40;;
51927;SDS011;37953;52.806;18.270;2023-04-19T04:34:34;10.95;;;5.00;;
51927;SDS011;37953;52.806;18.270;2023-04-19T04:37:02;14.98;;;5.22;;
51927;SDS011;37953;52.806;18.270;2023-04-19T04:39:29;15.32;;;6.20;;
51927;SDS011;37953;52.806;18.270;2023-04-19T04:41:58;13.52;;;6.30;;
51927;SDS011;37953;52.806;18.270;2023-04-19T04:44:24;17.80;;;7.10;;
51927;SDS011;37953;52.806;18.270;2023-04-19T04:46:50;17.75;;;7.45;;
51927;SDS011;37953;52.806;18.270;2023-04-19T04:49:16;14.75;;;7.93;;
51927;SDS011;37953;52.806;18.270;2023-04-19T04:51:42;18.95;;;8.05;;
51927;SDS011;37953;52.806;18.270;2023-04-19T04:54:08;15.93;;;7.68;;
51927;SDS011;37953;52.806;18.270;2023-04-19T04:56:34;15.95;;;7.15;;
51927;SDS011;37953;52.806;18.270;2023-04-19T04:59:01;14.38;;;6.53;;
51927;SDS011;37953;52.806;18.270;2023-04-19T05:01:27;11.68;;;5.75;;
51927;SDS011;37953;52.806;18.270;2023-04-19T05:03:53;11.93;;;5.18;;
51927;SDS011;37953;52.806;18.270;2023-04-19T05:06:19;13.15;;;5.10;;
51927;SDS011;37953;52.806;18.270;2023-04-19T05:08:44;14.60;;;5.53;;
51927;SDS011;37953;52.806;18.270;2023-04-19T05:11:10;13.82;;;5.28;;
51927;SDS011;37953;52.806;18.270;2023-04-19T05:13:36;13.27;;;4.93;;
51927;SDS011;37953;52.806;18.270;2023-04-19T05:16:02;13.20;;;5.07;;
51927;SDS011;37953;52.806;18.270;2023-04-19T05:18:28;11.60;;;5.10;;
51927;SDS011;37953;52.806;18.270;2023-04-19T05:20:55;13.45;;;5.28;;
51927;SDS011;37953;52.806;18.270;2023-04-19T05:23:21;13.13;;;5.50;;
51927;SDS011;37953;52.806;18.270;2023-04-19T05:25:47;18.90;;;8.07;;
51927;SDS011;37953;52.806;18.270;2023-04-19T05:28:13;28.70;;;13.32;;
51927;SDS011;37953;52.806;18.270;2023-04-19T05:30:39;23.90;;;10.95;;
51927;SDS011;37953;52.806;18.270;2023-04-19T05:33:05;18.58;;;8.50;;
51927;SDS011;37953;52.806;18.270;2023-04-19T05:35:31;17.30;;;6.68;;
51927;SDS011;37953;52.806;18.270;2023-04-19T05:37:57;9.43;;;4.90;;
51927;SDS011;37953;52.806;18.270;2023-04-19T05:40:23;9.82;;;4.50;;
51927;SDS011;37953;52.806;18.270;2023-04-19T05:42:49;11.80;;;5.00;;
51927;SDS011;37953;52.806;18.270;2023-04-19T05:45:15;9.32;;;4.35;;
51927;SDS011;37953;52.806;18.270;2023-04-19T05:47:43;8.40;;;4.38;;
51927;SDS011;37953;52.806;18.270;2023-04-19T05:50:12;10.98;;;4.40;;
51927;SDS011;37953;52.806;18.270;2023-04-19T05:52:39;9.60;;;5.05;;
51927;SDS011;37953;52.806;18.270;2023-04-19T05:55:05;15.45;;;5.15;;
51927;SDS011;37953;52.806;18.270;2023-04-19T05:57:32;15.70;;;5.40;;
51927;SDS011;37953;52.806;18.270;2023-04-19T06:00:04;9.15;;;4.80;;
51927;SDS011;37953;52.806;18.270;2023-04-19T06:02:31;14.88;;;5.20;;
51927;SDS011;37953;52.806;18.270;2023-04-19T06:04:57;13.05;;;5.18;;
51927;SDS011;37953;52.806;18.270;2023-04-19T06:07:23;9.02;;;5.28;;
51927;SDS011;37953;52.806;18.270;2023-04-19T06:09:49;13.20;;;5.45;;
51927;SDS011;37953;52.806;18.270;2023-04-19T06:12:15;16.17;;;5.43;;
51927;SDS011;37953;52.806;18.270;2023-04-19T06:14:41;14.05;;;5.63;;
51927;SDS011;37953;52.806;18.270;2023-04-19T06:17:07;14.07;;;6.18;;
51927;SDS011;37953;52.806;18.270;2023-04-19T06:19:33;15.27;;;6.57;;
51927;SDS011;37953;52.806;18.270;2023-04-19T06:21:59;13.50;;;6.00;;
51927;SDS011;37953;52.806;18.270;2023-04-19T06:24:26;13.40;;;5.82;;
51927;SDS011;37953;52.806;18.270;2023-04-19T06:26:52;12.55;;;5.88;;
51927;SDS011;37953;52.806;18.270;2023-04-19T06:29:18;15.98;;;5.82;;
51927;SDS011;37953;52.806;18.270;2023-04-19T06:31:46;13.02;;;5.43;;
51927;SDS011;37953;52.806;18.270;2023-04-19T06:34:15;15.80;;;6.00;;
51927;SDS011;37953;52.806;18.270;2023-04-19T06:36:41;10.90;;;5.22;;
51927;SDS011;37953;52.806;18.270;2023-04-19T06:39:07;13.43;;;5.53;;
51927;SDS011;37953;52.806;18.270;2023-04-19T06:41:34;15.32;;;5.10;;
51927;SDS011;37953;52.806;18.270;2023-04-19T06:44:00;11.88;;;4.90;;
51927;SDS011;37953;52.806;18.270;2023-04-19T06:46:26;13.05;;;4.93;;
51927;SDS011;37953;52.806;18.270;2023-04-19T06:48:52;11.40;;;4.97;;
51927;SDS011;37953;52.806;18.270;2023-04-19T06:51:18;12.73;;;5.18;;
51927;SDS011;37953;52.806;18.270;2023-04-19T06:53:45;15.52;;;5.05;;
51927;SDS011;37953;52.806;18.270;2023-04-19T06:56:10;14.00;;;5.05;;
51927;SDS011;37953;52.806;18.270;2023-04-19T06:58:43;19.77;;;5.22;;
51927;SDS011;37953;52.806;18.270;2023-04-19T07:01:09;15.15;;;4.78;;
51927;SDS011;37953;52.806;18.270;2023-04-19T07:03:35;12.95;;;4.85;;
51927;SDS011;37953;52.806;18.270;2023-04-19T07:06:01;13.27;;;5.10;;
51927;SDS011;37953;52.806;18.270;2023-04-19T07:08:27;15.50;;;5.50;;
51927;SDS011;37953;52.806;18.270;2023-04-19T07:10:53;16.70;;;5.45;;
51927;SDS011;37953;52.806;18.270;2023-04-19T07:13:21;14.57;;;6.13;;
51927;SDS011;37953;52.806;18.270;2023-04-19T07:15:47;12.10;;;5.25;;
51927;SDS011;37953;52.806;18.270;2023-04-19T07:18:13;12.45;;;5.15;;
51927;SDS011;37953;52.806;18.270;2023-04-19T07:20:40;13.75;;;4.97;;
51927;SDS011;37953;52.806;18.270;2023-04-19T07:23:09;16.63;;;5.70;;
51927;SDS011;37953;52.806;18.270;2023-04-19T07:25:35;10.77;;;5.28;;
51927;SDS011;37953;52.806;18.270;2023-04-19T07:28:02;10.27;;;4.40;;
51927;SDS011;37953;52.806;18.270;2023-04-19T07:30:28;11.52;;;5.00;;
51927;SDS011;37953;52.806;18.270;2023-04-19T07:32:54;14.45;;;4.60;;
51927;SDS011;37953;52.806;18.270;2023-04-19T07:35:20;12.35;;;4.68;;
51927;SDS011;37953;52.806;18.270;2023-04-19T07:37:46;17.02;;;5.70;;
51927;SDS011;37953;52.806;18.270;2023-04-19T07:40:12;10.50;;;4.75;;
51927;SDS011;37953;52.806;18.270;2023-04-19T07:42:38;12.32;;;4.40;;
51927;SDS011;37953;52.806;18.270;2023-04-19T07:45:04;10.57;;;5.03;;
51927;SDS011;37953;52.806;18.270;2023-04-19T07:47:31;9.98;;;5.10;;
51927;SDS011;37953;52.806;18.270;2023-04-19T07:49:57;12.95;;;5.20;;
51927;SDS011;37953;52.806;18.270;2023-04-19T07:52:23;12.05;;;5.03;;
51927;SDS011;37953;52.806;18.270;2023-04-19T07:54:49;13.20;;;5.35;;
51927;SDS011;37953;52.806;18.270;2023-04-19T07:57:16;15.00;;;5.03;;
51927;SDS011;37953;52.806;18.270;2023-04-19T07:59:41;10.75;;;4.95;;
51927;SDS011;37953;52.806;18.270;2023-04-19T08:02:08;9.95;;;5.40;;
51927;SDS011;37953;52.806;18.270;2023-04-19T08:04:34;12.45;;;5.85;;
51927;SDS011;37953;52.806;18.270;2023-04-19T08:07:00;13.65;;;6.15;;
51927;SDS011;37953;52.806;18.270;2023-04-19T08:09:26;10.57;;;5.68;;
51927;SDS011;37953;52.806;18.270;2023-04-19T08:11:55;17.00;;;6.32;;
51927;SDS011;37953;52.806;18.270;2023-04-19T08:14:22;11.93;;;6.15;;
51927;SDS011;37953;52.806;18.270;2023-04-19T08:16:48;12.00;;;6.25;;
51927;SDS011;37953;52.806;18.270;2023-04-19T08:19:14;10.32;;;5.35;;
51927;SDS011;37953;52.806;18.270;2023-04-19T08:21:40;11.20;;;4.80;;
51927;SDS011;37953;52.806;18.270;2023-04-19T08:24:06;10.00;;;4.72;;
51927;SDS011;37953;52.806;18.270;2023-04-19T08:26:32;7.90;;;4.80;;
51927;SDS011;37953;52.806;18.270;2023-04-19T08:28:58;10.70;;;5.07;;
51927;SDS011;37953;52.806;18.270;2023-04-19T08:31:24;8.38;;;4.43;;
51927;SDS011;37953;52.806;18.270;2023-04-19T08:33:50;12.77;;;5.75;;
51927;SDS011;37953;52.806;18.270;2023-04-19T08:36:16;7.80;;;5.07;;
51927;SDS011;37953;52.806;18.270;2023-04-19T08:38:42;10.48;;;5.25;;
51927;SDS011;37953;52.806;18.270;2023-04-19T08:41:09;9.23;;;4.70;;
51927;SDS011;37953;52.806;18.270;2023-04-19T08:43:36;9.85;;;5.47;;
51927;SDS011;37953;52.806;18.270;2023-04-19T08:46:03;11.30;;;5.25;;
51927;SDS011;37953;52.806;18.270;2023-04-19T08:48:29;10.50;;;5.38;;
51927;SDS011;37953;52.806;18.270;2023-04-19T08:53:29;9.68;;;4.72;;
51927;SDS011;37953;52.806;18.270;2023-04-19T08:56:02;10.02;;;5.05;;
51927;SDS011;37953;52.806;18.270;2023-04-19T08:58:28;10.20;;;5.32;;
51927;SDS011;37953;52.806;18.270;2023-04-19T09:00:57;9.60;;;4.80;;
51927;SDS011;37953;52.806;18.270;2023-04-19T09:03:23;10.60;;;5.03;;
51927;SDS011;37953;52.806;18.270;2023-04-19T09:05:49;11.13;;;5.20;;
51927;SDS011;37953;52.806;18.270;2023-04-19T09:10:55;12.02;;;5.45;;
51927;SDS011;37953;52.806;18.270;2023-04-19T09:13:23;9.80;;;4.90;;
51927;SDS011;37953;52.806;18.270;2023-04-19T09:15:53;15.32;;;6.97;;
51927;SDS011;37953;52.806;18.270;2023-04-19T09:18:26;14.80;;;7.25;;
51927;SDS011;37953;52.806;18.270;2023-04-19T09:20:52;14.40;;;7.15;;
51927;SDS011;37953;52.806;18.270;2023-04-19T09:23:25;17.67;;;7.00;;
51927;SDS011;37953;52.806;18.270;2023-04-19T09:25:59;16.80;;;7.47;;
51927;SDS011;37953;52.806;18.270;2023-04-19T09:28:31;20.55;;;8.00;;
51927;SDS011;37953;52.806;18.270;2023-04-19T09:30:57;16.67;;;7.40;;
51927;SDS011;37953;52.806;18.270;2023-04-19T09:33:35;12.25;;;6.45;;
51927;SDS011;37953;52.806;18.270;2023-04-19T09:36:04;15.02;;;6.97;;
51927;SDS011;37953;52.806;18.270;2023-04-19T09:38:47;15.27;;;6.68;;
51927;SDS011;37953;52.806;18.270;2023-04-19T09:41:14;12.75;;;6.50;;
51927;SDS011;37953;52.806;18.270;2023-04-19T09:43:42;12.43;;;6.70;;
51927;SDS011;37953;52.806;18.270;2023-04-19T09:46:08;14.10;;;6.82;;
51927;SDS011;37953;52.806;18.270;2023-04-19T09:51:42;13.40;;;6.63;;
51927;SDS011;37953;52.806;18.270;2023-04-19T09:54:09;13.85;;;6.35;;
51927;SDS011;37953;52.806;18.270;2023-04-19T09:56:41;11.85;;;6.07;;
51927;SDS011;37953;52.806;18.270;2023-04-19T09:59:08;14.75;;;6.55;;
51927;SDS011;37953;52.806;18.270;2023-04-19T10:01:38;13.77;;;6.88;;
51927;SDS011;37953;52.806;18.270;2023-04-19T10:04:06;12.02;;;6.88;;
51927;SDS011;37953;52.806;18.270;2023-04-19T10:06:37;14.43;;;7.22;;
51927;SDS011;37953;52.806;18.270;2023-04-19T10:09:05;13.98;;;7.13;;
51927;SDS011;37953;52.806;18.270;2023-04-19T10:11:32;12.27;;;7.15;;
51927;SDS011;37953;52.806;18.270;2023-04-19T10:14:08;13.25;;;7.45;;
51927;SDS011;37953;52.806;18.270;2023-04-19T10:16:36;15.35;;;7.57;;
51927;SDS011;37953;52.806;18.270;2023-04-19T10:19:04;16.27;;;6.88;;
51927;SDS011;37953;52.806;18.270;2023-04-19T10:21:35;13.70;;;7.28;;
51927;SDS011;37953;52.806;18.270;2023-04-19T10:24:08;13.18;;;7.25;;
51927;SDS011;37953;52.806;18.270;2023-04-19T10:32:19;14.77;;;7.63;;
51927;SDS011;37953;52.806;18.270;2023-04-19T10:34:46;19.35;;;8.15;;
51927;SDS011;37953;52.806;18.270;2023-04-19T10:37:12;17.50;;;7.72;;
51927;SDS011;37953;52.806;18.270;2023-04-19T10:39:44;13.05;;;7.20;;
51927;SDS011;37953;52.806;18.270;2023-04-19T10:42:10;16.30;;;7.82;;
51927;SDS011;37953;52.806;18.270;2023-04-19T10:44:37;16.02;;;8.55;;
51927;SDS011;37953;52.806;18.270;2023-04-19T10:47:06;14.57;;;7.60;;
51927;SDS011;37953;52.806;18.270;2023-04-19T10:49:43;15.55;;;8.20;;
51927;SDS011;37953;52.806;18.270;2023-04-19T10:52:26;19.13;;;7.22;;
51927;SDS011;37953;52.806;18.270;2023-04-19T10:54:56;15.02;;;7.18;;
51927;SDS011;37953;52.806;18.270;2023-04-19T10:57:22;16.42;;;7.95;;
51927;SDS011;37953;52.806;18.270;2023-04-19T11:02:46;19.70;;;7.63;;
51927;SDS011;37953;52.806;18.270;2023-04-19T11:05:12;14.13;;;7.78;;
51927;SDS011;37953;52.806;18.270;2023-04-19T11:07:39;16.83;;;8.00;;
51927;SDS011;37953;52.806;18.270;2023-04-19T11:10:11;19.35;;;8.35;;
51927;SDS011;37953;52.806;18.270;2023-04-19T11:12:40;17.92;;;7.90;;
51927;SDS011;37953;52.806;18.270;2023-04-19T11:15:06;16.98;;;8.77;;
51927;SDS011;37953;52.806;18.270;2023-04-19T11:17:34;17.83;;;8.50;;
51927;SDS011;37953;52.806;18.270;2023-04-19T11:20:03;15.85;;;8.10;;
51927;SDS011;37953;52.806;18.270;2023-04-19T11:22:45;17.45;;;8.50;;
51927;SDS011;37953;52.806;18.270;2023-04-19T11:25:12;16.73;;;8.90;;
51927;SDS011;37953;52.806;18.270;2023-04-19T11:27:45;19.52;;;9.55;;
51927;SDS011;37953;52.806;18.270;2023-04-19T11:30:16;18.00;;;8.77;;
51927;SDS011;37953;52.806;18.270;2023-04-19T11:32:51;17.55;;;9.00;;
51927;SDS011;37953;52.806;18.270;2023-04-19T11:35:23;22.25;;;10.00;;
51927;SDS011;37953;52.806;18.270;2023-04-19T11:37:51;19.83;;;8.63;;
51927;SDS011;37953;52.806;18.270;2023-04-19T11:40:18;14.63;;;8.00;;
51927;SDS011;37953;52.806;18.270;2023-04-19T11:42:46;19.35;;;8.68;;
51927;SDS011;37953;52.806;18.270;2023-04-19T11:45:50;16.80;;;8.27;;
51927;SDS011;37953;52.806;18.270;2023-04-19T11:48:13;15.98;;;8.52;;
51927;SDS011;37953;52.806;18.270;2023-04-19T11:50:42;16.15;;;9.05;;
51927;SDS011;37953;52.806;18.270;2023-04-19T11:53:16;17.45;;;8.60;;
51927;SDS011;37953;52.806;18.270;2023-04-19T12:01:09;20.83;;;8.70;;
51927;SDS011;37953;52.806;18.270;2023-04-19T12:03:50;14.18;;;7.95;;
51927;SDS011;37953;52.806;18.270;2023-04-19T12:06:18;15.73;;;8.75;;
51927;SDS011;37953;52.806;18.270;2023-04-19T12:08:56;18.10;;;8.95;;
51927;SDS011;37953;52.806;18.270;2023-04-19T12:11:23;20.65;;;8.70;;
51927;SDS011;37953;52.806;18.270;2023-04-19T12:16:38;15.32;;;8.05;;
51927;SDS011;37953;52.806;18.270;2023-04-19T12:19:14;14.18;;;7.68;;
51927;SDS011;37953;52.806;18.270;2023-04-19T12:21:42;17.88;;;7.70;;
51927;SDS011;37953;52.806;18.270;2023-04-19T12:24:09;18.33;;;8.50;;
51927;SDS011;37953;52.806;18.270;2023-04-19T12:26:36;16.60;;;8.30;;
51927;SDS011;37953;52.806;18.270;2023-04-19T12:29:23;51.92;;;20.20;;
51927;SDS011;37953;52.806;18.270;2023-04-19T12:31:49;42.17;;;14.93;;
51927;SDS011;37953;52.806;18.270;2023-04-19T12:34:15;26.83;;;10.60;;
51927;SDS011;37953;52.806;18.270;2023-04-19T12:36:41;24.02;;;8.95;;
51927;SDS011;37953;52.806;18.270;2023-04-19T12:39:07;20.65;;;9.13;;
51927;SDS011;37953;52.806;18.270;2023-04-19T12:41:33;15.75;;;7.60;;
51927;SDS011;37953;52.806;18.270;2023-04-19T12:44:12;16.83;;;6.88;;
51927;SDS011;37953;52.806;18.270;2023-04-19T12:46:38;14.65;;;7.10;;
51927;SDS011;37953;52.806;18.270;2023-04-19T12:49:04;16.08;;;6.78;;
51927;SDS011;37953;52.806;18.270;2023-04-19T12:51:30;16.58;;;7.47;;
51927;SDS011;37953;52.806;18.270;2023-04-19T12:53:57;16.08;;;6.90;;
51927;SDS011;37953;52.806;18.270;2023-04-19T12:56:24;13.43;;;7.10;;
51927;SDS011;37953;52.806;18.270;2023-04-19T12:59:03;12.23;;;6.30;;
51927;SDS011;37953;52.806;18.270;2023-04-19T13:01:29;14.43;;;6.85;;
51927;SDS011;37953;52.806;18.270;2023-04-19T13:03:57;15.32;;;6.65;;
51927;SDS011;37953;52.806;18.270;2023-04-19T13:06:22;13.23;;;6.32;;
51927;SDS011;37953;52.806;18.270;2023-04-19T13:08:49;13.35;;;6.63;;
51927;SDS011;37953;52.806;18.270;2023-04-19T13:11:15;11.88;;;6.35;;
51927;SDS011;37953;52.806;18.270;2023-04-19T13:13:47;13.75;;;6.70;;
51927;SDS011;37953;52.806;18.270;2023-04-19T13:16:19;12.73;;;6.55;;
51927;SDS011;37953;52.806;18.270;2023-04-19T13:18:45;9.55;;;6.10;;
51927;SDS011;37953;52.806;18.270;2023-04-19T13:21:11;11.80;;;5.78;;
51927;SDS011;37953;52.806;18.270;2023-04-19T13:23:38;10.25;;;5.55;;
51927;SDS011;37953;52.806;18.270;2023-04-19T13:26:04;10.07;;;5.85;;
51927;SDS011;37953;52.806;18.270;2023-04-19T13:28:31;9.82;;;5.47;;
51927;SDS011;37953;52.806;18.270;2023-04-19T13:31:00;8.13;;;5.10;;
51927;SDS011;37953;52.806;18.270;2023-04-19T13:33:27;9.20;;;4.93;;
51927;SDS011;37953;52.806;18.270;2023-04-19T13:35:53;10.90;;;5.68;;
51927;SDS011;37953;52.806;18.270;2023-04-19T13:38:19;9.45;;;5.90;;
51927;SDS011;37953;52.806;18.270;2023-04-19T13:40:47;12.30;;;5.90;;
51927;SDS011;37953;52.806;18.270;2023-04-19T13:43:13;11.27;;;6.18;;
51927;SDS011;37953;52.806;18.270;2023-04-19T13:45:39;9.55;;;5.65;;
51927;SDS011;37953;52.806;18.270;2023-04-19T13:48:05;7.20;;;4.85;;
51927;SDS011;37953;52.806;18.270;2023-04-19T13:50:31;8.45;;;4.97;;
51927;SDS011;37953;52.806;18.270;2023-04-19T13:52:57;7.32;;;4.85;;
51927;SDS011;37953;52.806;18.270;2023-04-19T13:55:23;9.35;;;4.68;;
51927;SDS011;37953;52.806;18.270;2023-04-19T13:57:50;8.68;;;5.10;;
51927;SDS011;37953;52.806;18.270;2023-04-19T14:00:22;11.50;;;7.10;;
51927;SDS011;37953;52.806;18.270;2023-04-19T14:02:49;14.82;;;6.93;;
51927;SDS011;37953;52.806;18.270;2023-04-19T14:05:15;8.15;;;5.35;;
51927;SDS011;37953;52.806;18.270;2023-04-19T14:07:41;9.55;;;5.53;;
51927;SDS011;37953;52.806;18.270;2023-04-19T14:10:07;9.88;;;5.45;;
51927;SDS011;37953;52.806;18.270;2023-04-19T14:12:34;9.85;;;5.57;;
51927;SDS011;37953;52.806;18.270;2023-04-19T14:15:00;9.27;;;5.22;;
51927;SDS011;37953;52.806;18.270;2023-04-19T14:17:26;8.73;;;5.10;;
51927;SDS011;37953;52.806;18.270;2023-04-19T14:19:52;8.80;;;5.57;;
51927;SDS011;37953;52.806;18.270;2023-04-19T14:22:18;8.35;;;5.10;;
51927;SDS011;37953;52.806;18.270;2023-04-19T14:24:44;7.53;;;5.18;;
51927;SDS011;37953;52.806;18.270;2023-04-19T14:27:11;9.82;;;6.05;;
51927;SDS011;37953;52.806;18.270;2023-04-19T14:29:37;11.10;;;5.43;;
51927;SDS011;37953;52.806;18.270;2023-04-19T14:32:04;9.20;;;5.88;;
51927;SDS011;37953;52.806;18.270;2023-04-19T14:34:30;8.65;;;4.95;;
51927;SDS011;37953;52.806;18.270;2023-04-19T14:36:57;10.20;;;5.63;;
51927;SDS011;37953;52.806;18.270;2023-04-19T14:39:23;8.88;;;5.47;;
51927;SDS011;37953;52.806;18.270;2023-04-19T14:41:55;9.57;;;5.28;;
51927;SDS011;37953;52.806;18.270;2023-04-19T14:44:22;9.07;;;5.55;;
51927;SDS011;37953;52.806;18.270;2023-04-19T14:46:48;9.20;;;6.03;;
51927;SDS011;37953;52.806;18.270;2023-04-19T14:49:15;9.23;;;6.35;;
51927;SDS011;37953;52.806;18.270;2023-04-19T14:51:41;11.25;;;6.78;;